Milton, Utah
Current Conditions -  °F | °C
As of 7:18 PM on Saturday 20 Dec 2014 (Local Time) from KHIF Reporting Station
Overcast Overcast  
Wind Chill: 30°   Ceiling: 6000
Heat Index: 37°   Visibility: 10mi
Dew Point: 37°   Wind: 12mph
Humidity: 100%   Direction: 170°S
Pressure: 30.04"   Gusts: NA
Location:  41.0884°N, 111.576°W
Report Text: KHIF 210218Z AUTO 17010KT 10SM SCT042 OVC060 03/03 A3004 RMK AO2 CIG 042 RWY32
Loading
Personal Weather Stations






























Interactive Weather Map New forecast layout! Learn more

10-Day Weather Forecast

Advertisements
Track Severe Weather on mobile